createdAt,value
2018-07-23T00:00:46.833Z,24.00
2018-07-23T00:03:16.694Z,23.90
2018-07-23T00:05:46.674Z,23.90
2018-07-23T00:10:46.051Z,23.90
2018-07-23T00:13:15.913Z,23.90
2018-07-23T00:15:45.791Z,23.80
2018-07-23T00:18:15.703Z,23.80
2018-07-23T00:20:45.746Z,23.80
2018-07-23T00:23:15.606Z,23.80
2018-07-23T00:25:45.482Z,23.80
2018-07-23T00:28:15.351Z,23.80
2018-07-23T00:30:45.230Z,23.80
2018-07-23T00:33:15.103Z,23.70
2018-07-23T00:35:44.974Z,23.70
2018-07-23T00:38:14.834Z,23.70
2018-07-23T00:40:44.707Z,23.70
2018-07-23T00:43:14.571Z,23.70
2018-07-23T00:45:44.440Z,23.60
2018-07-23T00:48:14.299Z,23.60
2018-07-23T00:50:44.188Z,23.60
2018-07-23T00:53:14.054Z,23.60
2018-07-23T00:55:43.932Z,23.60
2018-07-23T00:58:13.782Z,23.50
2018-07-23T01:00:43.659Z,23.50
2018-07-23T01:03:13.513Z,23.50
2018-07-23T01:05:43.399Z,23.50
2018-07-23T01:08:13.257Z,23.50
2018-07-23T01:10:43.133Z,23.50
2018-07-23T01:13:13.005Z,23.40
2018-07-23T01:15:42.900Z,23.40
2018-07-23T01:18:12.758Z,23.40
2018-07-23T01:20:42.686Z,23.40
2018-07-23T01:23:12.566Z,23.40
2018-07-23T01:25:42.455Z,23.40
2018-07-23T01:28:12.330Z,23.40
2018-07-23T01:30:42.199Z,23.40
2018-07-23T01:33:12.062Z,23.40
2018-07-23T01:35:41.938Z,23.30
2018-07-23T01:38:11.804Z,23.30
2018-07-23T01:40:41.680Z,23.30
2018-07-23T01:43:11.550Z,23.30
2018-07-23T01:45:41.431Z,23.30
2018-07-23T01:48:11.295Z,23.30
2018-07-23T01:50:41.174Z,23.30
2018-07-23T01:53:11.044Z,23.30
2018-07-23T01:55:40.919Z,23.30
2018-07-23T01:58:10.778Z,23.30
2018-07-23T02:00:40.647Z,23.20
2018-07-23T02:03:10.618Z,23.20
2018-07-23T02:05:40.490Z,23.20
2018-07-23T02:08:10.367Z,23.10
2018-07-23T02:10:40.237Z,23.10
2018-07-23T02:13:10.123Z,23.10
2018-07-23T02:15:39.999Z,23.10
2018-07-23T02:18:09.923Z,23.00
2018-07-23T02:20:39.751Z,23.00
2018-07-23T02:23:09.618Z,23.00
2018-07-23T02:25:39.486Z,23.00
2018-07-23T02:28:09.370Z,22.90
2018-07-23T02:30:39.254Z,22.90
2018-07-23T02:33:09.125Z,22.90
2018-07-23T02:35:38.993Z,22.90
2018-07-23T02:38:09.054Z,22.90
2018-07-23T02:40:38.921Z,22.90
2018-07-23T02:43:08.803Z,22.90
2018-07-23T02:45:38.664Z,22.90
2018-07-23T02:48:08.539Z,22.90
2018-07-23T02:50:38.406Z,22.90
2018-07-23T02:53:08.284Z,22.90
2018-07-23T02:55:38.152Z,22.90
2018-07-23T02:58:08.135Z,22.90
2018-07-23T03:00:38.006Z,22.90
2018-07-23T03:03:08.502Z,22.90
2018-07-23T03:05:38.409Z,22.90
2018-07-23T03:08:08.288Z,22.90
2018-07-23T03:10:38.150Z,22.90
2018-07-23T03:13:08.416Z,22.90
2018-07-23T03:15:38.825Z,22.90
2018-07-23T03:18:08.795Z,22.80
2018-07-23T03:20:38.658Z,22.80
2018-07-23T03:23:08.551Z,22.70
2018-07-23T03:25:38.430Z,22.70
2018-07-23T03:28:08.362Z,22.70
2018-07-23T03:30:38.235Z,22.70
2018-07-23T03:35:37.642Z,22.60
2018-07-23T03:38:07.526Z,22.50
2018-07-23T03:40:37.407Z,22.50
2018-07-23T03:43:07.347Z,22.50
2018-07-23T03:45:37.210Z,22.50
2018-07-23T03:48:07.219Z,22.50
2018-07-23T03:50:37.120Z,22.50
2018-07-23T03:53:07.128Z,22.60
2018-07-23T03:55:36.985Z,22.60
2018-07-23T03:58:07.078Z,22.50
2018-07-23T04:00:36.950Z,22.50
2018-07-23T04:03:06.877Z,22.50
2018-07-23T04:05:36.759Z,22.50
2018-07-23T04:08:07.146Z,22.50
2018-07-23T04:10:37.023Z,22.60
2018-07-23T04:13:06.902Z,22.60
2018-07-23T04:15:36.854Z,22.60
2018-07-23T04:18:06.744Z,22.60
2018-07-23T04:20:36.989Z,22.60
2018-07-23T04:23:07.147Z,22.60
2018-07-23T04:25:37.036Z,22.60
2018-07-23T04:28:06.906Z,22.50
2018-07-23T04:30:36.819Z,22.50
2018-07-23T04:33:06.883Z,22.50
2018-07-23T04:35:36.766Z,22.40
2018-07-23T04:38:06.711Z,22.40
2018-07-23T04:40:36.695Z,22.40
2018-07-23T04:43:06.555Z,22.40
2018-07-23T04:45:36.437Z,22.40
2018-07-23T04:48:06.855Z,22.50
2018-07-23T04:50:37.722Z,22.50
2018-07-23T04:53:07.543Z,22.50
2018-07-23T04:55:37.403Z,22.50
2018-07-23T04:58:07.371Z,22.50
2018-07-23T05:00:37.241Z,22.60
2018-07-23T05:03:08.105Z,22.60
2018-07-23T05:08:07.507Z,22.60
2018-07-23T05:10:37.414Z,22.60
2018-07-23T05:13:07.293Z,22.60
2018-07-23T05:15:37.158Z,22.70
2018-07-23T05:18:07.030Z,22.60
2018-07-23T05:20:36.898Z,22.60
2018-07-23T05:23:06.887Z,22.60
2018-07-23T05:25:36.822Z,22.60
2018-07-23T05:28:06.782Z,22.60
2018-07-23T05:30:37.249Z,22.60
2018-07-23T05:33:07.245Z,22.60
2018-07-23T05:35:37.134Z,22.60
2018-07-23T05:38:07.006Z,22.60
2018-07-23T05:40:36.894Z,22.70
2018-07-23T05:43:07.010Z,22.70
2018-07-23T05:45:36.886Z,22.70
2018-07-23T05:48:06.795Z,22.80
2018-07-23T05:50:37.147Z,22.80
2018-07-23T05:53:08.287Z,22.90
2018-07-23T05:55:38.146Z,22.90
2018-07-23T05:58:08.073Z,23.00
2018-07-23T06:00:37.963Z,23.00
2018-07-23T06:03:07.847Z,23.00
2018-07-23T06:05:38.147Z,23.10
2018-07-23T06:08:09.747Z,23.10
2018-07-23T06:10:39.659Z,23.20
2018-07-23T06:13:09.602Z,23.20
2018-07-23T06:15:39.451Z,23.30
2018-07-23T06:18:09.331Z,23.30
2018-07-23T06:20:39.206Z,23.30
2018-07-23T06:23:09.082Z,23.40
2018-07-23T06:25:38.977Z,23.40
2018-07-23T06:28:08.831Z,23.40
2018-07-23T06:30:38.703Z,23.50
2018-07-23T06:33:08.582Z,23.50
2018-07-23T06:35:38.451Z,23.50
2018-07-23T06:38:08.358Z,23.60
2018-07-23T06:40:38.235Z,23.60
2018-07-23T06:43:08.132Z,23.60
2018-07-23T06:45:38.562Z,23.60
2018-07-23T06:48:08.438Z,23.70
2018-07-23T06:50:38.334Z,23.70
2018-07-23T06:53:08.214Z,23.70
2018-07-23T06:55:38.076Z,23.70
2018-07-23T06:58:07.988Z,23.80
2018-07-23T07:00:37.935Z,23.80
2018-07-23T07:03:08.774Z,23.80
2018-07-23T07:05:38.632Z,23.80
2018-07-23T07:08:08.672Z,23.90
2018-07-23T07:13:08.087Z,24.00
2018-07-23T07:15:37.966Z,24.00
2018-07-23T07:18:07.855Z,24.00
2018-07-23T07:20:38.251Z,24.10
2018-07-23T07:23:08.168Z,24.10
2018-07-23T07:25:38.050Z,24.20
2018-07-23T07:28:07.930Z,24.20
2018-07-23T07:30:37.807Z,24.20
2018-07-23T07:33:07.874Z,24.30
2018-07-23T07:35:38.443Z,24.30
2018-07-23T07:38:08.434Z,24.30
2018-07-23T07:40:38.387Z,24.30
2018-07-23T07:43:08.263Z,24.40
2018-07-23T07:45:38.318Z,24.40
2018-07-23T07:48:08.182Z,24.40
2018-07-23T07:50:38.119Z,24.50
2018-07-23T07:53:07.962Z,24.50
2018-07-23T07:55:37.858Z,24.50
2018-07-23T07:58:07.778Z,24.60
2018-07-23T08:00:37.706Z,24.60
2018-07-23T08:03:07.578Z,24.60
2018-07-23T08:05:37.474Z,24.70
2018-07-23T08:08:07.364Z,24.70
2018-07-23T08:10:37.270Z,24.70
2018-07-23T08:13:07.219Z,24.70
2018-07-23T08:15:37.092Z,24.80
2018-07-23T08:18:07.062Z,24.80
2018-07-23T08:20:36.926Z,24.90
2018-07-23T08:23:06.830Z,24.90
2018-07-23T08:25:36.710Z,25.00
2018-07-23T08:28:06.714Z,25.00
2018-07-23T08:30:36.577Z,25.10
2018-07-23T08:33:06.454Z,25.10
2018-07-23T08:35:36.358Z,25.20
2018-07-23T08:38:06.296Z,25.20
2018-07-23T08:40:36.167Z,25.30
2018-07-23T08:43:06.567Z,25.30
2018-07-23T08:45:36.420Z,25.40
2018-07-23T08:48:06.299Z,25.40
2018-07-23T08:50:36.203Z,25.40
2018-07-23T08:53:06.111Z,25.50
2018-07-23T08:55:35.988Z,25.50
2018-07-23T08:58:05.862Z,25.60
2018-07-23T09:00:35.761Z,25.60
2018-07-23T09:03:05.763Z,25.60
2018-07-23T09:05:35.637Z,25.60
2018-07-23T09:08:05.548Z,25.70
2018-07-23T09:10:35.438Z,25.70
2018-07-23T09:13:05.498Z,25.70
2018-07-23T09:15:35.407Z,25.70
2018-07-23T09:18:05.294Z,25.80
2018-07-23T09:20:35.183Z,25.90
2018-07-23T09:23:05.139Z,25.90
2018-07-23T09:25:40.519Z,25.90
2018-07-23T09:28:10.415Z,25.90
2018-07-23T09:30:45.741Z,25.90
2018-07-23T09:33:15.748Z,26.00
2018-07-23T09:35:45.638Z,26.00
2018-07-23T09:38:15.515Z,26.00
2018-07-23T09:40:45.391Z,26.10
2018-07-23T09:43:15.255Z,26.10
2018-07-23T09:45:45.147Z,26.10
2018-07-23T09:48:15.197Z,26.20
2018-07-23T09:50:48.047Z,26.20
2018-07-23T09:53:17.917Z,26.30
2018-07-23T09:55:47.802Z,26.30
2018-07-23T09:58:17.665Z,26.30
2018-07-23T10:00:52.839Z,26.40
2018-07-23T10:03:22.762Z,26.40
2018-07-23T10:05:52.663Z,26.50
2018-07-23T10:08:22.542Z,26.50
2018-07-23T10:10:52.504Z,26.50
2018-07-23T10:13:22.310Z,26.60
2018-07-23T10:15:52.221Z,26.60
2018-07-23T10:18:22.083Z,26.70
2018-07-23T10:20:51.970Z,26.70
2018-07-23T10:23:21.832Z,26.70
2018-07-23T10:25:51.716Z,26.70
2018-07-23T10:28:21.590Z,26.70
2018-07-23T10:30:51.484Z,26.70
2018-07-23T10:33:21.446Z,26.70
2018-07-23T10:35:51.442Z,26.70
2018-07-23T10:38:21.344Z,26.60
2018-07-23T10:40:51.222Z,26.60
2018-07-23T10:43:21.098Z,26.50
2018-07-23T10:45:50.971Z,26.50
2018-07-23T10:48:20.833Z,26.50
2018-07-23T10:50:50.720Z,26.50
2018-07-23T10:53:20.592Z,26.50
2018-07-23T10:55:50.478Z,26.50
2018-07-23T10:58:20.347Z,26.50
2018-07-23T11:00:50.222Z,26.50
2018-07-23T11:03:20.090Z,26.50
2018-07-23T11:05:49.962Z,26.50
2018-07-23T11:08:19.848Z,26.50
2018-07-23T11:10:49.716Z,26.50
2018-07-23T11:13:19.590Z,26.50
2018-07-23T11:15:49.467Z,26.50
2018-07-23T11:18:19.338Z,26.50
2018-07-23T11:20:49.230Z,26.50
2018-07-23T11:23:19.103Z,26.50
2018-07-23T11:25:48.978Z,26.50
2018-07-23T11:28:18.864Z,26.60
2018-07-23T11:30:48.758Z,26.60
2018-07-23T11:33:18.628Z,26.60
2018-07-23T11:35:48.583Z,26.60
2018-07-23T11:38:18.466Z,26.60
2018-07-23T11:40:48.330Z,26.70
2018-07-23T11:43:18.191Z,26.60
2018-07-23T11:45:48.054Z,26.70
2018-07-23T11:48:17.940Z,26.70
2018-07-23T11:50:47.874Z,26.70
2018-07-23T11:58:16.758Z,26.80
2018-07-23T12:00:46.639Z,26.80
2018-07-23T12:03:16.501Z,26.90
2018-07-23T12:05:46.374Z,27.00
2018-07-23T12:08:16.285Z,27.00
2018-07-23T12:10:46.159Z,27.10
2018-07-23T12:13:16.031Z,27.20
2018-07-23T12:15:45.911Z,27.20
2018-07-23T12:18:15.782Z,27.30
2018-07-23T12:20:45.683Z,27.30
2018-07-23T12:25:45.077Z,27.40
2018-07-23T12:28:14.935Z,27.50
2018-07-23T12:30:44.825Z,27.60
2018-07-23T12:33:14.690Z,27.60
2018-07-23T12:35:44.603Z,27.60
2018-07-23T12:40:44.264Z,27.70
2018-07-23T12:43:14.163Z,27.70
2018-07-23T12:45:49.386Z,27.70
2018-07-23T12:48:19.631Z,27.70
2018-07-23T12:50:49.547Z,27.70
2018-07-23T12:53:19.430Z,27.70
2018-07-23T12:55:54.566Z,27.80
2018-07-23T12:58:24.448Z,27.80
2018-07-23T13:00:54.379Z,27.80
2018-07-23T13:03:29.602Z,27.80
2018-07-23T13:05:59.478Z,27.80
2018-07-23T13:08:29.355Z,27.90
2018-07-23T13:10:59.242Z,27.90
2018-07-23T13:13:29.114Z,27.90
2018-07-23T13:16:00.232Z,27.90
2018-07-23T13:18:30.170Z,27.90
2018-07-23T13:21:00.189Z,27.90
2018-07-23T13:23:30.086Z,27.80
2018-07-23T13:25:59.993Z,27.90
2018-07-23T13:28:29.884Z,27.80
2018-07-23T13:31:00.226Z,27.80
2018-07-23T13:33:30.186Z,27.80
2018-07-23T13:36:00.138Z,27.80
2018-07-23T13:38:30.020Z,27.80
2018-07-23T13:40:59.927Z,27.80
2018-07-23T13:43:29.799Z,27.80
2018-07-23T13:45:59.679Z,27.80
2018-07-23T13:48:29.559Z,27.80
2018-07-23T13:50:59.608Z,27.80
2018-07-23T13:53:29.532Z,27.80
2018-07-23T13:55:59.445Z,27.90
2018-07-23T13:58:29.397Z,27.80
2018-07-23T14:00:59.342Z,27.90
2018-07-23T14:03:29.275Z,27.90
2018-07-23T14:05:59.158Z,27.90
2018-07-23T14:08:29.033Z,27.90
2018-07-23T14:10:59.083Z,27.90
2018-07-23T14:13:28.954Z,27.90
2018-07-23T14:15:58.827Z,28.00
2018-07-23T14:18:28.698Z,28.00
2018-07-23T14:20:58.579Z,28.00
2018-07-23T14:23:28.452Z,28.00
2018-07-23T14:25:58.896Z,28.00
2018-07-23T14:28:28.761Z,28.00
2018-07-23T14:30:58.627Z,28.10
2018-07-23T14:33:28.526Z,28.10
2018-07-23T14:35:58.382Z,28.10
2018-07-23T14:38:28.297Z,28.10
2018-07-23T14:40:58.140Z,28.10
2018-07-23T14:43:28.011Z,28.10
2018-07-23T14:45:57.895Z,28.20
2018-07-23T14:48:27.767Z,28.10
2018-07-23T14:50:57.618Z,28.10
2018-07-23T14:53:27.510Z,28.10
2018-07-23T14:55:57.450Z,28.10
2018-07-23T14:58:27.326Z,28.20
2018-07-23T15:00:57.239Z,28.10
2018-07-23T15:03:27.123Z,28.10
2018-07-23T15:05:57.065Z,28.10
2018-07-23T15:08:26.958Z,28.10
2018-07-23T15:10:56.835Z,28.10
2018-07-23T15:13:26.728Z,28.10
2018-07-23T15:15:56.599Z,28.10
2018-07-23T15:18:26.539Z,28.10
2018-07-23T15:20:56.470Z,28.10
2018-07-23T15:23:26.351Z,28.10
2018-07-23T15:25:56.246Z,28.10
2018-07-23T15:28:26.139Z,28.10
2018-07-23T15:30:56.025Z,28.10
2018-07-23T15:33:25.907Z,28.10
2018-07-23T15:35:55.771Z,28.10
2018-07-23T15:38:25.670Z,28.10
2018-07-23T15:40:55.540Z,28.10
2018-07-23T15:43:25.419Z,28.10
2018-07-23T15:45:55.373Z,28.10
2018-07-23T15:48:25.214Z,28.10
2018-07-23T15:50:55.221Z,28.10
2018-07-23T15:53:28.511Z,28.10
2018-07-23T15:55:59.194Z,28.10
2018-07-23T15:58:31.497Z,28.10
2018-07-23T16:01:01.367Z,28.10
2018-07-23T16:03:33.712Z,28.10
2018-07-23T16:06:05.898Z,28.10
2018-07-23T16:08:41.132Z,28.10
2018-07-23T16:11:14.671Z,28.10
2018-07-23T16:13:44.546Z,28.10
2018-07-23T16:16:14.429Z,28.10
2018-07-23T16:18:44.322Z,28.00
2018-07-23T16:21:14.242Z,28.00
2018-07-23T16:23:44.447Z,28.00
2018-07-23T16:26:14.339Z,28.00
2018-07-23T16:28:44.216Z,28.00
2018-07-23T16:31:14.107Z,28.00
2018-07-23T16:33:44.007Z,28.00
2018-07-23T16:36:13.967Z,28.00
2018-07-23T16:41:13.395Z,28.00
2018-07-23T16:43:43.274Z,28.00
2018-07-23T16:46:13.150Z,28.00
2018-07-23T16:48:44.363Z,28.00
2018-07-23T16:51:14.255Z,28.00
2018-07-23T16:53:44.166Z,28.00
2018-07-23T16:56:14.048Z,28.00
2018-07-23T16:58:43.939Z,28.00
2018-07-23T17:01:13.827Z,28.00
2018-07-23T17:03:43.691Z,28.00
2018-07-23T17:06:13.575Z,28.00
2018-07-23T17:08:43.450Z,27.90
2018-07-23T17:11:13.407Z,27.90
2018-07-23T17:13:43.273Z,28.00
2018-07-23T17:16:14.391Z,27.90
2018-07-23T17:18:44.288Z,27.90
2018-07-23T17:21:14.211Z,27.90
2018-07-23T17:23:45.535Z,27.90
2018-07-23T17:26:15.435Z,27.90
2018-07-23T17:28:45.694Z,27.90
2018-07-23T17:31:15.598Z,27.90
2018-07-23T17:33:45.513Z,27.90
2018-07-23T17:36:15.544Z,27.80
2018-07-23T17:38:45.481Z,27.80
2018-07-23T17:41:15.259Z,27.80
2018-07-23T17:43:45.617Z,27.80
2018-07-23T17:46:15.484Z,27.80
2018-07-23T17:48:45.346Z,27.80
2018-07-23T17:51:15.254Z,27.80
2018-07-23T17:53:45.138Z,27.70
2018-07-23T17:56:15.023Z,27.70
2018-07-23T17:58:44.903Z,27.70
2018-07-23T18:01:14.819Z,27.70
2018-07-23T18:03:44.687Z,27.70
2018-07-23T18:06:14.566Z,27.70
2018-07-23T18:08:47.306Z,27.70
2018-07-23T18:11:17.729Z,27.70
2018-07-23T18:13:47.558Z,27.60
2018-07-23T18:16:17.503Z,27.60
2018-07-23T18:18:47.383Z,27.60
2018-07-23T18:21:17.275Z,27.60
2018-07-23T18:23:47.178Z,27.60
2018-07-23T18:26:17.075Z,27.60
2018-07-23T18:28:46.954Z,27.60
2018-07-23T18:31:16.900Z,27.60
2018-07-23T18:33:46.723Z,27.60
2018-07-23T18:36:16.786Z,27.50
2018-07-23T18:38:46.824Z,27.50
2018-07-23T18:41:16.616Z,27.50
2018-07-23T18:43:46.490Z,27.50
2018-07-23T18:46:16.382Z,27.50
2018-07-23T18:49:36.047Z,27.40
2018-07-23T18:52:06.202Z,27.40
2018-07-23T18:54:36.623Z,27.40
2018-07-23T18:57:07.416Z,27.40
2018-07-23T18:59:37.375Z,27.30
2018-07-23T19:02:08.514Z,27.30
2018-07-23T19:04:38.403Z,27.30
2018-07-23T19:07:08.942Z,27.30
2018-07-23T19:09:38.895Z,27.30
2018-07-23T19:12:09.306Z,27.30
2018-07-23T19:14:39.219Z,27.20
2018-07-23T19:17:10.647Z,27.20
2018-07-23T19:19:40.524Z,27.20
2018-07-23T19:22:10.464Z,27.20
2018-07-23T19:24:40.327Z,27.10
2018-07-23T19:27:10.304Z,27.10
2018-07-23T19:29:40.158Z,27.10
2018-07-23T19:32:16.996Z,27.00
2018-07-23T19:34:47.062Z,27.00
2018-07-23T19:37:16.950Z,27.00
2018-07-23T19:39:46.824Z,26.90
2018-07-23T19:42:16.877Z,26.90
2018-07-23T19:44:46.736Z,26.90
2018-07-23T19:47:16.645Z,26.80
2018-07-23T19:49:46.519Z,26.80
2018-07-23T19:52:16.414Z,26.70
2018-07-23T19:54:46.291Z,26.70
2018-07-23T19:57:16.190Z,26.70
2018-07-23T19:59:46.118Z,26.60
2018-07-23T20:02:16.004Z,26.60
2018-07-23T20:04:45.901Z,26.50
2018-07-23T20:07:15.797Z,26.50
2018-07-23T20:09:45.747Z,26.50
2018-07-23T20:12:15.645Z,26.50
2018-07-23T20:14:45.517Z,26.40
2018-07-23T20:17:15.402Z,26.40
2018-07-23T20:19:45.275Z,26.30
2018-07-23T20:22:15.167Z,26.30
2018-07-23T20:24:45.078Z,26.30
2018-07-23T20:27:21.572Z,26.30
2018-07-23T20:29:51.455Z,26.20
2018-07-23T20:32:21.423Z,26.10
2018-07-23T20:34:51.310Z,26.10
2018-07-23T20:37:21.244Z,26.10
2018-07-23T20:39:51.135Z,26.00
2018-07-23T20:42:21.095Z,26.00
2018-07-23T20:44:50.986Z,25.90
2018-07-23T20:47:20.862Z,25.90
2018-07-23T20:49:50.745Z,25.90
2018-07-23T20:52:20.622Z,25.90
2018-07-23T20:54:50.507Z,25.80
2018-07-23T20:57:20.402Z,25.80
2018-07-23T20:59:50.338Z,25.70
2018-07-23T21:02:20.243Z,25.70
2018-07-23T21:04:50.127Z,25.70
2018-07-23T21:07:20.027Z,25.70
2018-07-23T21:09:50.011Z,25.60
2018-07-23T21:12:19.866Z,25.60
2018-07-23T21:14:49.756Z,25.60
2018-07-23T21:17:19.650Z,25.50
2018-07-23T21:19:49.532Z,25.50
2018-07-23T21:22:19.524Z,25.50
2018-07-23T21:24:49.383Z,25.40
2018-07-23T21:27:19.294Z,25.40
2018-07-23T21:29:49.205Z,25.40
2018-07-23T21:32:19.114Z,25.30
2018-07-23T21:34:49.034Z,25.30
2018-07-23T21:37:18.926Z,25.30
2018-07-23T21:39:48.824Z,25.20
2018-07-23T21:42:18.770Z,25.20
2018-07-23T21:44:48.666Z,25.20
2018-07-23T21:47:18.607Z,25.10
2018-07-23T21:49:48.490Z,25.10
2018-07-23T21:52:18.415Z,25.10
2018-07-23T21:54:48.318Z,25.00
2018-07-23T21:57:18.208Z,25.00
2018-07-23T21:59:48.125Z,25.00
2018-07-23T22:02:18.028Z,25.00
2018-07-23T22:04:47.903Z,25.00
2018-07-23T22:07:17.793Z,24.90
2018-07-23T22:09:47.689Z,24.90
2018-07-23T22:12:17.570Z,24.90
2018-07-23T22:14:47.451Z,24.90
2018-07-23T22:17:17.351Z,24.80
2018-07-23T22:19:47.235Z,24.80
2018-07-23T22:22:17.190Z,24.80
2018-07-23T22:24:47.083Z,24.70
2018-07-23T22:27:16.983Z,24.70
2018-07-23T22:29:46.875Z,24.70
2018-07-23T22:32:16.851Z,24.60
2018-07-23T22:34:47.011Z,24.60
2018-07-23T22:37:17.580Z,24.60
2018-07-23T22:39:47.466Z,24.60
2018-07-23T22:42:17.363Z,24.60
2018-07-23T22:44:51.906Z,24.50
2018-07-23T22:47:21.815Z,24.50
2018-07-23T22:49:51.707Z,24.50
2018-07-23T22:52:21.595Z,24.50
2018-07-23T22:54:51.487Z,24.50
2018-07-23T22:57:21.374Z,24.50
2018-07-23T22:59:51.258Z,24.40
2018-07-23T23:02:21.159Z,24.40
2018-07-23T23:04:51.042Z,24.40
2018-07-23T23:07:20.930Z,24.40
2018-07-23T23:09:50.807Z,24.40
2018-07-23T23:12:20.710Z,24.30
2018-07-23T23:17:20.135Z,24.30
2018-07-23T23:19:50.013Z,24.30
2018-07-23T23:22:19.903Z,24.20
2018-07-23T23:24:49.795Z,24.20
2018-07-23T23:27:19.694Z,24.20
2018-07-23T23:29:49.596Z,24.20
2018-07-23T23:32:19.492Z,24.10
2018-07-23T23:34:49.395Z,24.10
2018-07-23T23:37:19.292Z,24.10
2018-07-23T23:39:49.239Z,24.10
2018-07-23T23:42:19.138Z,24.00
2018-07-23T23:44:49.031Z,24.00
2018-07-23T23:47:18.908Z,24.00
2018-07-23T23:49:48.810Z,24.00
2018-07-23T23:52:18.750Z,23.90
2018-07-23T23:54:48.646Z,23.90
2018-07-23T23:57:18.527Z,23.90
2018-07-23T23:59:48.474Z,23.90
